Time;durP1;ratioP1;P1;durP2;ratioP2;P2;SDS_P1;SDS_P2;PMS_P1;PMS_P2;Temp;Humidity;BMP_temperature;BMP_pressure;BME280_temperature;BME280_humidity;BME280_pressure;Samples;Min_cycle;Max_cycle;Signal;HPM_P1;HPM_P2
2021/01/28 00:00:12;;;;;;;15.50;6.40;;;4.30;99.10;;;;;;4996340;28;20807;-83
2021/01/28 00:02:38;;;;;;;10.80;5.88;;;4.30;99.10;;;;;;4997075;28;20644;-82
2021/01/28 00:05:05;;;;;;;16.20;5.75;;;4.30;99.10;;;;;;4998145;28;20348;-82
2021/01/28 00:07:31;;;;;;;16.73;7.32;;;4.20;99.10;;;;;;4999039;28;20223;-82
2021/01/28 00:09:56;;;;;;;12.03;6.53;;;4.30;99.10;;;;;;4998422;28;20581;-82
2021/01/28 00:12:22;;;;;;;12.37;6.33;;;4.30;99.10;;;;;;4998707;28;20175;-82
2021/01/28 00:14:48;;;;;;;8.03;5.17;;;4.30;99.10;;;;;;4999054;28;20202;-82
2021/01/28 00:17:14;;;;;;;9.37;5.10;;;4.40;99.10;;;;;;4999965;28;20775;-82
2021/01/28 00:19:40;;;;;;;9.63;5.35;;;4.40;99.10;;;;;;4999059;28;20199;-82
2021/01/28 00:22:06;;;;;;;10.20;5.60;;;4.40;99.10;;;;;;4999587;28;20198;-82
2021/01/28 00:24:31;;;;;;;9.13;5.83;;;4.50;99.10;;;;;;4999481;28;20260;-82
2021/01/28 00:26:57;;;;;;;14.07;6.13;;;4.50;99.10;;;;;;4998776;28;20422;-82
2021/01/28 00:29:23;;;;;;;11.60;6.07;;;4.40;99.10;;;;;;4999331;28;20485;-82
2021/01/28 00:31:49;;;;;;;16.70;6.10;;;4.40;99.10;;;;;;4998593;28;20206;-82
2021/01/28 00:34:15;;;;;;;13.68;6.43;;;4.30;99.10;;;;;;4998974;28;20176;-83
2021/01/28 00:36:41;;;;;;;15.33;7.17;;;4.30;99.10;;;;;;4999351;28;20171;-82
2021/01/28 00:39:08;;;;;;;14.73;7.43;;;4.30;99.10;;;;;;4998719;28;20218;-82
2021/01/28 00:41:34;;;;;;;13.52;6.65;;;4.40;99.10;;;;;;4999354;28;20422;-82
2021/01/28 00:43:59;;;;;;;13.60;6.40;;;4.40;99.10;;;;;;5000552;28;20261;-82
2021/01/28 00:46:25;;;;;;;14.60;7.20;;;4.40;99.10;;;;;;5001846;28;20207;-82
2021/01/28 00:48:51;;;;;;;11.73;6.07;;;4.30;99.10;;;;;;5001851;28;20449;-82
2021/01/28 00:51:17;;;;;;;12.60;5.63;;;4.30;99.10;;;;;;5002718;28;20411;-82
2021/01/28 00:53:43;;;;;;;12.40;6.77;;;4.30;99.10;;;;;;5001433;28;20878;-82
2021/01/28 00:56:09;;;;;;;16.53;6.27;;;4.30;99.10;;;;;;5006529;28;20426;-82
2021/01/28 00:58:35;;;;;;;15.48;6.95;;;4.20;99.10;;;;;;5002504;28;20800;-82
2021/01/28 01:01:01;;;;;;;13.83;6.80;;;4.30;99.10;;;;;;5014117;28;20209;-82
2021/01/28 01:03:28;;;;;;;21.13;7.43;;;4.30;99.10;;;;;;5011284;28;20410;-82
2021/01/28 01:05:54;;;;;;;15.32;7.68;;;4.30;99.10;;;;;;5010753;28;20694;-82
2021/01/28 01:08:25;;;;;;;15.23;7.13;;;4.30;99.10;;;;;;5015782;28;20674;-81
2021/01/28 01:11:00;;;;;;;12.10;6.72;;;4.30;99.10;;;;;;5017744;28;20546;-82
2021/01/28 01:13:31;;;;;;;12.38;5.90;;;4.30;99.10;;;;;;5000278;28;20189;-81
2021/01/28 01:15:58;;;;;;;22.65;6.95;;;4.30;99.10;;;;;;5013344;28;20380;-82
2021/01/28 01:18:27;;;;;;;13.70;6.70;;;4.30;99.10;;;;;;5019122;28;20360;-82
2021/01/28 01:20:54;;;;;;;18.75;6.30;;;4.30;99.10;;;;;;5019128;28;20202;-82
2021/01/28 01:23:20;;;;;;;15.60;6.95;;;4.40;99.10;;;;;;5018751;28;20170;-82
2021/01/28 01:25:46;;;;;;;17.73;7.82;;;4.40;99.10;;;;;;5018985;28;20360;-82
2021/01/28 01:28:12;;;;;;;10.77;5.53;;;4.40;99.10;;;;;;5019287;28;20301;-82
2021/01/28 01:30:38;;;;;;;10.40;5.77;;;4.50;99.10;;;;;;5018919;28;20762;-82
2021/01/28 01:33:04;;;;;;;13.50;5.88;;;4.50;99.10;;;;;;5019960;28;20409;-82
2021/01/28 01:35:30;;;;;;;8.65;4.57;;;4.50;99.10;;;;;;5019031;28;20179;-82
2021/01/28 01:37:57;;;;;;;13.93;6.57;;;4.50;99.10;;;;;;5018914;28;20220;-82
2021/01/28 01:40:31;;;;;;;10.73;5.80;;;4.50;99.10;;;;;;5018874;28;20194;-82
2021/01/28 01:42:58;;;;;;;7.75;4.10;;;4.40;99.10;;;;;;5019356;28;20189;-82
2021/01/28 01:45:29;;;;;;;9.45;4.72;;;4.40;99.10;;;;;;5018322;28;20203;-82
2021/01/28 01:48:02;;;;;;;6.63;4.20;;;4.40;99.10;;;;;;5018949;28;20706;-82
2021/01/28 01:50:46;;;;;;;8.90;5.20;;;4.40;99.10;;;;;;5018664;28;20159;-82
2021/01/28 01:53:34;;;;;;;14.73;6.38;;;4.40;99.10;;;;;;5018848;28;20193;-82
2021/01/28 01:56:09;;;;;;;13.73;5.28;;;4.40;99.10;;;;;;5019367;28;20174;-82
2021/01/28 01:58:44;;;;;;;12.82;5.53;;;4.40;99.10;;;;;;5019529;28;20317;-82
2021/01/28 02:01:11;;;;;;;15.43;5.65;;;4.40;99.10;;;;;;5018962;28;20634;-82
2021/01/28 02:03:38;;;;;;;10.80;6.10;;;4.40;99.10;;;;;;5019162;28;20170;-82
2021/01/28 02:06:19;;;;;;;9.57;6.03;;;4.40;99.10;;;;;;5018971;28;20203;-82
2021/01/28 02:08:50;;;;;;;8.45;4.75;;;4.40;99.10;;;;;;5018287;28;20191;-82
2021/01/28 02:11:17;;;;;;;11.73;4.88;;;4.40;99.10;;;;;;5018711;28;20168;-82
2021/01/28 02:13:45;;;;;;;12.65;4.75;;;4.40;99.10;;;;;;5019029;28;20174;-81
2021/01/28 02:16:13;;;;;;;12.00;4.72;;;4.40;99.10;;;;;;5018859;28;20171;-82
2021/01/28 02:18:41;;;;;;;7.45;4.30;;;4.50;99.10;;;;;;5019032;28;20226;-81
2021/01/28 02:21:20;;;;;;;8.75;4.53;;;4.50;99.10;;;;;;5017883;28;20548;-82
2021/01/28 02:24:12;;;;;;;9.35;4.25;;;4.50;99.10;;;;;;5018933;28;20686;-82
2021/01/28 02:26:45;;;;;;;8.27;3.40;;;4.50;99.10;;;;;;5018882;28;20190;-82
2021/01/28 02:29:49;;;;;;;8.60;3.70;;;4.40;99.10;;;;;;5018996;28;20605;-82
2021/01/28 02:32:15;;;;;;;7.07;3.65;;;4.40;99.10;;;;;;5018397;28;20174;-82
2021/01/28 02:34:44;;;;;;;10.40;4.50;;;4.50;99.10;;;;;;5018357;28;20603;-82
2021/01/28 02:37:17;;;;;;;6.55;3.08;;;4.50;99.10;;;;;;5018924;28;20194;-82
2021/01/28 02:39:43;;;;;;;5.65;3.35;;;4.50;99.10;;;;;;5018710;28;20651;-82
2021/01/28 02:42:30;;;;;;;8.43;4.05;;;4.60;99.10;;;;;;5018374;28;20534;-82
2021/01/28 02:44:56;;;;;;;7.20;3.90;;;4.60;99.10;;;;;;5017747;28;20547;-82
2021/01/28 02:47:22;;;;;;;8.32;4.72;;;4.60;99.10;;;;;;5018147;28;20595;-82
2021/01/28 02:49:51;;;;;;;12.37;5.33;;;4.60;99.10;;;;;;5018972;28;20253;-82
2021/01/28 02:52:18;;;;;;;10.35;4.03;;;4.60;99.10;;;;;;5018689;28;20406;-82
2021/01/28 02:54:46;;;;;;;7.18;3.75;;;4.60;99.10;;;;;;5018931;28;20217;-82
2021/01/28 02:57:12;;;;;;;13.85;3.55;;;4.60;99.10;;;;;;5019396;28;20175;-82
2021/01/28 02:59:38;;;;;;;7.70;4.07;;;4.60;99.10;;;;;;5018739;28;20325;-82
2021/01/28 03:02:11;;;;;;;7.95;4.50;;;4.50;99.10;;;;;;5019074;28;20192;-82
2021/01/28 03:04:37;;;;;;;8.52;3.47;;;4.50;99.10;;;;;;5019190;28;20198;-82
2021/01/28 03:07:06;;;;;;;9.40;4.65;;;4.50;99.10;;;;;;5018634;28;20175;-82
2021/01/28 03:09:32;;;;;;;12.57;4.38;;;4.60;99.10;;;;;;5018858;28;20635;-82
2021/01/28 03:11:58;;;;;;;10.52;4.70;;;4.60;99.10;;;;;;5018844;28;20260;-82
2021/01/28 03:14:23;;;;;;;7.63;4.83;;;4.50;99.10;;;;;;5019580;28;20264;-81
2021/01/28 03:16:49;;;;;;;8.80;4.53;;;4.50;99.10;;;;;;5019902;28;20232;-82
2021/01/28 03:19:18;;;;;;;10.10;5.07;;;4.60;99.10;;;;;;5019386;28;20472;-82
2021/01/28 03:21:44;;;;;;;16.67;5.40;;;4.60;99.10;;;;;;5018848;28;20432;-82
2021/01/28 03:24:10;;;;;;;13.20;5.65;;;4.50;99.10;;;;;;5018871;28;20595;-81
2021/01/28 03:26:36;;;;;;;9.25;4.35;;;4.50;99.10;;;;;;5018793;28;20174;-81
2021/01/28 03:29:03;;;;;;;11.27;5.38;;;4.50;99.10;;;;;;5018410;28;20191;-82
2021/01/28 03:31:28;;;;;;;13.57;5.75;;;4.50;99.10;;;;;;5018560;28;20247;-82
2021/01/28 03:33:54;;;;;;;11.37;5.13;;;4.50;99.10;;;;;;5017914;28;20183;-82
2021/01/28 03:36:20;;;;;;;9.97;5.30;;;4.50;99.10;;;;;;5017889;28;20194;-82
2021/01/28 03:38:45;;;;;;;12.13;4.60;;;4.50;99.10;;;;;;5017031;28;20214;-82
2021/01/28 03:41:11;;;;;;;11.10;4.80;;;4.50;99.10;;;;;;5017623;28;20662;-82
2021/01/28 03:43:37;;;;;;;14.27;5.63;;;4.50;99.10;;;;;;5017901;28;20206;-82
2021/01/28 03:46:02;;;;;;;12.27;5.00;;;4.60;99.10;;;;;;5018264;28;20678;-82
2021/01/28 03:48:28;;;;;;;10.33;5.27;;;4.60;99.10;;;;;;5018484;28;20303;-82
2021/01/28 03:50:54;;;;;;;12.40;5.83;;;4.60;99.10;;;;;;5018256;28;20166;-82
2021/01/28 03:53:20;;;;;;;9.20;4.80;;;4.60;99.10;;;;;;5017712;28;20960;-82
2021/01/28 03:55:45;;;;;;;9.43;4.50;;;4.60;99.10;;;;;;5017494;28;20413;-82
2021/01/28 03:58:11;;;;;;;8.53;4.20;;;4.70;99.10;;;;;;5017904;28;20520;-82
2021/01/28 04:00:37;;;;;;;8.40;4.27;;;4.60;99.10;;;;;;5017007;28;20202;-82
2021/01/28 04:03:04;;;;;;;6.93;3.83;;;4.70;99.10;;;;;;5018744;28;20198;-82
2021/01/28 04:05:30;;;;;;;5.53;3.20;;;4.80;99.10;;;;;;5017766;28;20453;-82
2021/01/28 04:07:56;;;;;;;6.03;3.20;;;4.80;99.10;;;;;;5017563;28;20256;-82
2021/01/28 04:10:31;;;;;;;7.35;3.55;;;4.90;99.10;;;;;;5018228;28;20206;-82
2021/01/28 04:12:57;;;;;;;8.60;3.67;;;4.90;99.10;;;;;;5017113;28;20174;-82
2021/01/28 04:15:24;;;;;;;4.80;2.70;;;5.00;99.10;;;;;;5017444;28;20193;-82
2021/01/28 04:17:50;;;;;;;8.73;3.85;;;5.00;99.10;;;;;;5018308;28;20285;-82
2021/01/28 04:20:19;;;;;;;6.75;3.13;;;5.10;99.10;;;;;;5022191;28;20622;-82
2021/01/28 04:22:44;;;;;;;4.85;2.80;;;5.20;99.10;;;;;;5022697;28;20178;-82
2021/01/28 04:25:14;;;;;;;6.10;2.70;;;5.20;99.10;;;;;;5023251;28;20293;-82
2021/01/28 04:27:40;;;;;;;3.50;2.53;;;5.20;99.10;;;;;;5022754;28;20190;-82
2021/01/28 04:30:12;;;;;;;5.00;2.00;;;5.30;99.10;;;;;;5022741;28;20205;-82
2021/01/28 04:32:37;;;;;;;5.68;2.10;;;5.30;99.10;;;;;;5023077;28;20173;-82
2021/01/28 04:35:06;;;;;;;7.13;3.23;;;5.30;99.10;;;;;;5022301;28;20175;-81
2021/01/28 04:37:32;;;;;;;5.43;2.60;;;5.40;99.10;;;;;;5021907;28;20188;-82
2021/01/28 04:39:57;;;;;;;6.07;2.83;;;5.40;99.10;;;;;;5101456;23;20225;-86
2021/01/28 04:42:36;;;;;;;7.80;3.57;;;5.30;99.10;;;;;;5040081;28;20423;-87
2021/01/28 04:45:03;;;;;;;6.93;3.00;;;5.30;99.10;;;;;;5039569;28;20857;-86
2021/01/28 04:47:28;;;;;;;7.75;3.25;;;5.30;99.10;;;;;;5057385;28;20224;-86
2021/01/28 04:49:58;;;;;;;13.23;3.67;;;5.40;99.10;;;;;;5056582;28;20170;-86
2021/01/28 04:52:25;;;;;;;7.75;3.85;;;5.30;99.10;;;;;;5056146;28;20958;-87
2021/01/28 04:54:56;;;;;;;14.05;4.30;;;5.40;99.10;;;;;;5056356;28;20200;-86
2021/01/28 04:57:22;;;;;;;11.75;4.05;;;5.30;99.10;;;;;;5057349;28;20230;-86
2021/01/28 04:59:51;;;;;;;9.60;4.50;;;5.20;99.10;;;;;;5056550;28;20206;-86
2021/01/28 05:02:23;;;;;;;14.95;4.13;;;5.30;99.10;;;;;;5056623;28;20605;-86
2021/01/28 05:05:05;;;;;;;11.45;4.20;;;5.30;99.10;;;;;;5056550;28;20220;-86
2021/01/28 05:07:34;;;;;;;8.10;4.50;;;5.30;99.10;;;;;;5050680;28;20209;-87
2021/01/28 05:10:11;;;;;;;12.02;5.38;;;5.30;99.10;;;;;;5046944;28;20170;-86
2021/01/28 05:12:38;;;;;;;9.52;4.88;;;5.40;99.10;;;;;;5044644;28;20170;-86
2021/01/28 05:15:37;;;;;;;8.80;4.93;;;5.30;99.10;;;;;;5047738;28;20308;-87
2021/01/28 05:18:25;;;;;;;10.45;4.93;;;5.30;99.10;;;;;;5046315;28;20185;-87
2021/01/28 05:20:51;;;;;;;8.40;5.40;;;5.20;99.10;;;;;;5035609;28;20174;-87
2021/01/28 05:23:26;;;;;;;10.83;5.07;;;5.10;99.10;;;;;;5035648;28;20178;-87
2021/01/28 05:25:52;;;;;;;16.40;5.50;;;5.10;99.10;;;;;;5035750;28;20509;-87
2021/01/28 05:28:36;;;;;;;13.00;5.10;;;5.10;99.10;;;;;;5035500;28;20332;-86
2021/01/28 05:31:01;;;;;;;9.80;5.10;;;5.10;99.10;;;;;;5035012;28;20158;-86
2021/01/28 05:33:38;;;;;;;13.43;5.53;;;5.10;99.10;;;;;;5035364;28;20196;-87
2021/01/28 05:36:22;;;;;;;9.82;6.22;;;5.00;99.10;;;;;;5037455;28;20409;-87
2021/01/28 05:38:51;;;;;;;12.10;5.28;;;5.00;99.10;;;;;;5035794;28;20201;-87
2021/01/28 05:41:36;;;;;;;13.85;5.65;;;5.00;99.10;;;;;;5035650;28;20701;-86
2021/01/28 05:44:28;;;;;;;11.38;5.50;;;5.00;99.10;;;;;;5035679;28;20180;-87
2021/01/28 05:47:26;;;;;;;11.68;6.35;;;4.90;99.10;;;;;;5035569;28;20661;-87
2021/01/28 05:49:53;;;;;;;11.10;6.35;;;4.80;99.10;;;;;;5033416;28;20210;-87
2021/01/28 05:52:30;;;;;;;10.65;5.22;;;4.80;99.10;;;;;;5042936;28;20232;-88
2021/01/28 05:55:13;;;;;;;15.00;7.22;;;4.80;99.10;;;;;;5035698;28;20266;-88
2021/01/28 05:57:51;;;;;;;17.85;7.40;;;4.80;99.10;;;;;;5035227;28;20658;-89
2021/01/28 06:00:26;;;;;;;22.35;7.82;;;4.70;99.10;;;;;;5035255;28;20170;-88
2021/01/28 06:03:07;;;;;;;20.27;8.68;;;4.60;99.10;;;;;;5035554;28;20177;-89
2021/01/28 06:05:45;;;;;;;15.65;8.05;;;4.70;99.10;;;;;;5035448;28;20198;-88
2021/01/28 06:08:33;;;;;;;21.50;9.20;;;4.70;99.10;;;;;;5035010;28;20297;-88
2021/01/28 06:11:22;;;;;;;22.77;8.98;;;4.70;99.10;;;;;;5035263;28;20181;-88
2021/01/28 06:14:03;;;;;;;17.05;8.15;;;4.70;99.10;;;;;;5050383;28;20162;-85
2021/01/28 06:16:47;;;;;;;16.17;6.78;;;4.80;99.10;;;;;;5052091;28;20174;-87
2021/01/28 06:19:32;;;;;;;24.70;8.63;;;4.80;99.10;;;;;;5035246;28;20217;-87
2021/01/28 06:22:01;;;;;;;15.43;7.55;;;4.80;99.10;;;;;;5035210;28;20688;-89
2021/01/28 06:24:45;;;;;;;22.85;8.10;;;4.80;99.10;;;;;;5035210;28;20174;-87
2021/01/28 06:27:52;;;;;;;18.65;8.50;;;4.80;99.10;;;;;;5035385;28;20176;-87
2021/01/28 06:30:35;;;;;;;23.95;9.10;;;4.80;99.10;;;;;;4975734;28;20171;-87
2021/01/28 06:33:38;;;;;;;24.35;9.00;;;4.80;99.10;;;;;;5029203;28;20189;-86
2021/01/28 06:36:07;;;;;;;16.85;7.28;;;4.70;99.10;;;;;;5034723;28;20260;-87
2021/01/28 06:39:18;;;;;;;22.10;8.82;;;4.70;99.10;;;;;;5034499;28;20269;-87
2021/01/28 06:42:13;;;;;;;29.42;9.05;;;4.80;99.10;;;;;;5034048;28;20208;-87
2021/01/28 06:45:02;;;;;;;25.33;9.30;;;4.80;99.10;;;;;;5034676;28;20605;-87
2021/01/28 06:47:49;;;;;;;23.42;8.77;;;4.80;99.10;;;;;;5034453;28;20162;-88
2021/01/28 06:50:31;;;;;;;20.77;9.25;;;4.80;99.10;;;;;;5034549;28;20173;-88
2021/01/28 06:53:12;;;;;;;16.30;8.20;;;4.80;99.10;;;;;;5034239;28;20166;-87
2021/01/28 06:56:13;;;;;;;22.85;9.25;;;4.80;99.10;;;;;;5034764;28;20166;-88
2021/01/28 06:58:59;;;;;;;24.00;8.90;;;4.80;99.10;;;;;;5031077;28;20201;-87
2021/01/28 07:01:44;;;;;;;24.92;8.60;;;4.80;99.10;;;;;;5034570;28;20208;-88
2021/01/28 07:04:22;;;;;;;19.20;8.35;;;4.80;99.10;;;;;;5034165;28;20209;-87
2021/01/28 07:07:09;;;;;;;20.13;8.85;;;4.70;99.10;;;;;;5033980;28;20181;-87
2021/01/28 07:09:45;;;;;;;29.38;10.50;;;4.70;99.10;;;;;;5034235;28;20274;-90
2021/01/28 07:12:17;;;;;;;25.23;9.90;;;4.80;99.10;;;;;;5033838;28;20158;-87
2021/01/28 07:14:50;;;;;;;19.50;9.32;;;4.70;99.10;;;;;;5034573;28;20646;-86
2021/01/28 07:17:23;;;;;;;22.83;9.95;;;4.70;99.10;;;;;;5034284;28;20241;-86
2021/01/28 07:20:00;;;;;;;22.75;9.45;;;4.70;99.10;;;;;;5034326;28;20198;-87
2021/01/28 07:22:37;;;;;;;23.10;8.90;;;4.70;99.10;;;;;;5033505;28;20180;-87
2021/01/28 07:25:26;;;;;;;22.33;8.60;;;4.70;99.10;;;;;;5033644;28;20197;-87
2021/01/28 07:28:00;;;;;;;27.05;9.38;;;4.70;99.10;;;;;;5025850;28;20209;-87
2021/01/28 07:30:43;;;;;;;23.67;8.98;;;4.70;99.10;;;;;;5033447;28;20172;-87
2021/01/28 07:33:24;;;;;;;27.38;10.95;;;4.70;99.10;;;;;;5033611;28;20177;-87
2021/01/28 07:35:58;;;;;;;25.98;10.32;;;4.60;99.10;;;;;;5033577;28;20174;-87
2021/01/28 07:38:27;;;;;;;20.00;9.43;;;4.70;99.10;;;;;;5033463;28;20879;-87
2021/01/28 07:41:16;;;;;;;22.48;10.70;;;4.60;99.10;;;;;;5032983;28;20198;-87
2021/01/28 07:43:48;;;;;;;28.45;10.50;;;4.60;99.10;;;;;;5033094;28;20181;-88
2021/01/28 07:46:31;;;;;;;29.13;12.10;;;4.60;99.10;;;;;;5033233;28;20197;-89
2021/01/28 07:49:20;;;;;;;28.23;11.27;;;4.50;99.10;;;;;;5032933;28;20194;-87
2021/01/28 07:51:58;;;;;;;27.25;12.77;;;4.60;99.10;;;;;;5033261;28;20524;-88
2021/01/28 07:54:24;;;;;;;18.63;9.90;;;4.60;99.10;;;;;;5032658;28;20670;-87
2021/01/28 07:56:57;;;;;;;30.97;10.93;;;4.60;99.10;;;;;;5032659;28;20170;-87
2021/01/28 07:59:38;;;;;;;23.90;9.25;;;4.50;99.10;;;;;;5032470;28;20190;-88
2021/01/28 08:02:32;;;;;;;33.33;10.95;;;4.60;99.10;;;;;;5033238;28;20186;-87
2021/01/28 08:05:04;;;;;;;24.95;10.00;;;4.60;99.10;;;;;;5032935;28;20202;-87
2021/01/28 08:07:32;;;;;;;21.17;9.63;;;4.60;99.10;;;;;;5032542;28;20174;-87
2021/01/28 08:10:05;;;;;;;21.92;10.23;;;4.60;99.10;;;;;;5033750;28;20194;-87
2021/01/28 08:12:53;;;;;;;24.45;9.82;;;4.50;99.10;;;;;;5034628;28;20158;-87
2021/01/28 08:15:50;;;;;;;30.20;10.25;;;4.60;99.10;;;;;;5032067;28;20212;-88
2021/01/28 08:18:15;;;;;;;22.77;10.35;;;4.60;99.10;;;;;;5040023;28;20616;-87
2021/01/28 08:20:41;;;;;;;25.83;8.80;;;4.70;99.10;;;;;;5032906;28;20204;-87
2021/01/28 08:23:14;;;;;;;20.92;9.98;;;4.70;99.10;;;;;;5032571;28;20173;-88
2021/01/28 08:25:58;;;;;;;22.17;10.63;;;4.80;99.10;;;;;;5032026;28;20209;-87
2021/01/28 08:28:26;;;;;;;28.02;10.35;;;4.80;99.10;;;;;;5032339;28;20194;-88
2021/01/28 08:31:02;;;;;;;25.13;10.75;;;4.80;99.10;;;;;;5032792;28;20177;-87
2021/01/28 08:33:28;;;;;;;34.22;12.05;;;4.80;99.10;;;;;;5034005;28;20707;-88
2021/01/28 08:35:59;;;;;;;20.63;8.73;;;4.80;99.10;;;;;;5033578;28;20212;-87
2021/01/28 08:38:30;;;;;;;23.10;10.18;;;4.80;99.10;;;;;;5033618;28;20557;-89
2021/01/28 08:41:07;;;;;;;18.10;8.40;;;4.90;99.10;;;;;;5034599;28;20197;-87
2021/01/28 08:43:33;;;;;;;42.90;10.45;;;5.00;99.10;;;;;;5033619;28;20169;-87
2021/01/28 08:46:18;;;;;;;22.70;9.20;;;5.00;99.10;;;;;;5032984;28;20204;-87
2021/01/28 08:48:44;;;;;;;28.58;9.10;;;5.00;99.10;;;;;;5033151;28;20194;-87
2021/01/28 08:51:18;;;;;;;33.08;9.55;;;5.10;99.10;;;;;;5033490;28;20166;-87
2021/01/28 08:53:57;;;;;;;22.55;9.05;;;5.10;99.10;;;;;;5033214;28;20174;-87
2021/01/28 08:56:30;;;;;;;23.38;9.25;;;5.10;99.10;;;;;;5040077;28;20174;-86
2021/01/28 08:58:56;;;;;;;20.42;9.55;;;5.20;99.10;;;;;;5033061;28;20600;-88
2021/01/28 09:01:22;;;;;;;22.30;9.50;;;5.20;99.10;;;;;;5033116;28;20181;-89
2021/01/28 09:04:11;;;;;;;20.27;8.73;;;5.20;99.10;;;;;;5032471;28;20257;-88
2021/01/28 09:06:50;;;;;;;27.20;9.57;;;5.20;99.10;;;;;;5036230;28;20670;-88
2021/01/28 09:09:21;;;;;;;19.73;7.40;;;5.20;99.10;;;;;;5036940;28;20197;-87
2021/01/28 09:11:47;;;;;;;25.88;7.95;;;5.30;99.10;;;;;;5036497;28;20304;-87
2021/01/28 09:14:17;;;;;;;18.40;6.82;;;5.30;99.10;;;;;;5036805;28;20170;-87
2021/01/28 09:17:09;;;;;;;21.65;8.20;;;5.30;99.10;;;;;;5038206;28;20181;-87
2021/01/28 09:19:39;;;;;;;27.55;7.60;;;5.30;99.10;;;;;;5039510;28;20194;-88
2021/01/28 09:22:21;;;;;;;14.93;5.95;;;5.40;99.10;;;;;;5036580;28;20273;-88
2021/01/28 09:24:49;;;;;;;21.70;5.78;;;5.50;99.10;;;;;;5036399;28;20539;-88
2021/01/28 09:27:17;;;;;;;16.90;6.60;;;5.50;99.10;;;;;;5036504;28;20178;-90
2021/01/28 09:29:44;;;;;;;21.15;7.32;;;5.50;99.10;;;;;;5036511;28;20178;-90
2021/01/28 09:32:33;;;;;;;14.82;5.80;;;5.50;99.10;;;;;;5038005;28;20161;-88
2021/01/28 09:35:23;;;;;;;17.70;6.88;;;5.50;99.10;;;;;;5036587;28;20174;-88
2021/01/28 09:38:14;;;;;;;8.50;5.20;;;5.60;99.10;;;;;;5036646;28;20732;-88
2021/01/28 09:40:42;;;;;;;11.02;5.28;;;5.60;99.10;;;;;;5036695;28;20196;-88
2021/01/28 09:43:35;;;;;;;22.00;6.30;;;5.70;99.10;;;;;;5037007;28;20235;-88
2021/01/28 09:46:10;;;;;;;10.10;4.70;;;5.70;99.10;;;;;;5034070;28;20680;-87
2021/01/28 09:48:37;;;;;;;14.98;5.43;;;5.80;99.10;;;;;;5036179;28;20185;-88
2021/01/28 09:51:07;;;;;;;12.02;5.50;;;5.80;99.10;;;;;;5036145;28;20180;-88
2021/01/28 09:53:34;;;;;;;13.82;6.30;;;5.80;99.10;;;;;;5035811;28;20531;-88
2021/01/28 09:56:00;;;;;;;9.93;4.90;;;5.80;99.10;;;;;;5036252;28;20178;-87
2021/01/28 09:58:26;;;;;;;8.93;4.50;;;5.80;99.10;;;;;;5035618;28;20285;-88
2021/01/28 10:00:52;;;;;;;9.55;3.95;;;5.90;99.10;;;;;;5035734;28;20466;-88
2021/01/28 10:03:19;;;;;;;6.47;3.60;;;6.00;99.10;;;;;;5035966;28;20170;-88
2021/01/28 10:05:45;;;;;;;6.30;2.92;;;6.00;99.10;;;;;;5036215;28;20704;-88
2021/01/28 10:08:11;;;;;;;5.82;2.40;;;6.00;99.10;;;;;;5036502;28;20666;-87
2021/01/28 10:10:40;;;;;;;7.68;3.13;;;6.10;99.10;;;;;;5036364;28;20173;-88
2021/01/28 10:13:10;;;;;;;5.40;3.25;;;6.20;99.10;;;;;;5035833;28;20253;-88
2021/01/28 10:15:36;;;;;;;3.38;2.10;;;6.30;99.10;;;;;;5035079;28;20397;-87
2021/01/28 10:18:02;;;;;;;3.40;1.60;;;6.30;99.10;;;;;;5034896;28;20281;-88
2021/01/28 10:20:28;;;;;;;4.30;1.77;;;6.40;99.10;;;;;;5035015;28;20431;-88
2021/01/28 10:22:57;;;;;;;4.50;1.80;;;6.50;99.10;;;;;;5034845;28;20281;-87
2021/01/28 10:25:23;;;;;;;3.58;1.55;;;6.50;99.10;;;;;;5034415;28;20573;-88
2021/01/28 10:27:49;;;;;;;4.40;1.97;;;6.50;99.10;;;;;;5035068;28;20193;-88
2021/01/28 10:30:16;;;;;;;3.60;1.92;;;6.60;99.10;;;;;;5034897;28;20519;-88
2021/01/28 10:32:44;;;;;;;3.15;1.73;;;6.60;99.10;;;;;;5034384;28;20565;-89
2021/01/28 10:35:10;;;;;;;10.88;1.98;;;6.70;99.10;;;;;;5034480;28;20642;-88
2021/01/28 10:37:36;;;;;;;3.33;1.77;;;6.70;99.10;;;;;;5034461;28;20194;-88
2021/01/28 10:40:04;;;;;;;3.80;2.97;;;6.70;99.10;;;;;;5034328;28;20196;-86
2021/01/28 10:42:32;;;;;;;2.60;1.50;;;6.70;99.10;;;;;;5034255;28;20178;-87
2021/01/28 10:44:59;;;;;;;2.35;1.48;;;6.80;99.10;;;;;;5034364;28;20667;-86
2021/01/28 10:47:25;;;;;;;3.17;1.45;;;6.90;99.10;;;;;;5034328;28;20268;-87
2021/01/28 10:49:50;;;;;;;4.80;1.30;;;7.00;99.10;;;;;;5034417;28;20209;-86
2021/01/28 10:52:16;;;;;;;12.87;2.60;;;7.00;99.10;;;;;;5033760;28;20412;-86
2021/01/28 10:54:43;;;;;;;3.97;1.97;;;7.00;99.10;;;;;;5033993;28;20174;-86
2021/01/28 10:57:09;;;;;;;3.35;1.60;;;7.00;99.10;;;;;;5033594;28;20415;-86
2021/01/28 10:59:35;;;;;;;3.17;2.40;;;7.10;99.10;;;;;;5035179;28;20194;-86
2021/01/28 11:02:00;;;;;;;2.60;1.40;;;7.20;99.10;;;;;;5034259;28;20173;-87
2021/01/28 11:04:27;;;;;;;2.83;1.50;;;7.20;99.10;;;;;;5033544;28;20193;-86
2021/01/28 11:06:53;;;;;;;2.17;1.42;;;7.30;99.10;;;;;;5033850;28;20412;-87
2021/01/28 11:09:19;;;;;;;2.00;1.40;;;7.40;99.10;;;;;;5033362;28;20216;-86
2021/01/28 11:11:45;;;;;;;3.33;1.57;;;7.50;99.10;;;;;;5032924;28;20670;-86
2021/01/28 11:14:11;;;;;;;2.30;1.10;;;7.50;99.10;;;;;;5033140;28;20170;-87
2021/01/28 11:16:38;;;;;;;2.00;1.33;;;7.60;99.10;;;;;;5033396;28;20187;-85
2021/01/28 11:19:05;;;;;;;1.75;0.90;;;7.60;99.10;;;;;;5033391;28;20189;-86
2021/01/28 11:21:31;;;;;;;4.70;1.10;;;7.60;99.10;;;;;;5032898;28;20178;-85
2021/01/28 11:23:57;;;;;;;1.83;1.40;;;7.60;99.10;;;;;;5033043;28;20181;-86
2021/01/28 11:26:22;;;;;;;1.57;1.20;;;7.60;99.10;;;;;;5033097;28;20979;-86
2021/01/28 11:28:48;;;;;;;3.10;1.10;;;7.70;99.10;;;;;;5032701;28;20216;-86
2021/01/28 11:31:14;;;;;;;3.23;1.17;;;7.60;99.10;;;;;;5033973;28;20182;-86
2021/01/28 11:33:40;;;;;;;5.80;1.60;;;7.60;99.10;;;;;;5033673;28;20650;-86
2021/01/28 11:36:05;;;;;;;2.87;1.50;;;7.60;99.10;;;;;;5033904;28;20428;-86
2021/01/28 11:38:31;;;;;;;1.77;1.30;;;7.70;99.10;;;;;;5033831;28;20484;-86
2021/01/28 11:40:57;;;;;;;8.00;1.60;;;7.70;99.10;;;;;;5033818;28;20442;-86
2021/01/28 11:43:23;;;;;;;2.80;1.50;;;7.80;99.10;;;;;;5033660;28;20272;-86
2021/01/28 11:45:49;;;;;;;1.87;1.40;;;7.80;99.10;;;;;;5033873;28;20205;-85
2021/01/28 11:48:14;;;;;;;3.57;1.40;;;7.90;99.10;;;;;;5033696;28;20452;-86
2021/01/28 11:50:40;;;;;;;2.23;1.23;;;8.00;99.10;;;;;;5033487;28;20764;-86
2021/01/28 11:53:06;;;;;;;2.00;1.57;;;8.10;99.10;;;;;;5033604;28;20413;-86
2021/01/28 11:55:32;;;;;;;3.20;1.60;;;8.10;99.10;;;;;;5040347;28;20447;-86
2021/01/28 11:57:58;;;;;;;11.27;1.50;;;8.10;99.10;;;;;;5048929;28;20783;-86
2021/01/28 12:00:26;;;;;;;2.17;1.33;;;8.20;99.10;;;;;;5044971;28;20628;-87
2021/01/28 12:02:52;;;;;;;3.92;2.05;;;8.20;99.10;;;;;;5043227;28;20234;-87
2021/01/28 12:05:22;;;;;;;3.88;1.85;;;8.20;99.10;;;;;;5053451;28;20204;-87
2021/01/28 12:07:49;;;;;;;3.55;1.80;;;8.20;99.10;;;;;;5053339;28;20196;-86
2021/01/28 12:10:16;;;;;;;3.50;1.40;;;8.30;99.10;;;;;;5053428;28;20181;-86
2021/01/28 12:12:43;;;;;;;1.48;1.20;;;8.40;99.10;;;;;;5047536;28;20177;-87
2021/01/28 12:15:10;;;;;;;1.75;1.20;;;8.40;99.10;;;;;;5041669;28;20249;-88
2021/01/28 12:17:36;;;;;;;6.47;1.25;;;8.50;99.10;;;;;;5041568;28;20288;-88
2021/01/28 12:20:05;;;;;;;2.87;1.33;;;8.60;99.10;;;;;;5041660;28;20200;-87
2021/01/28 12:22:30;;;;;;;3.05;1.33;;;8.70;99.10;;;;;;5041574;28;20452;-88
2021/01/28 12:24:56;;;;;;;5.60;1.40;;;8.80;99.10;;;;;;5043067;28;20231;-88
2021/01/28 12:27:22;;;;;;;3.00;1.20;;;8.90;99.10;;;;;;5043857;28;20405;-87
2021/01/28 12:29:48;;;;;;;1.83;1.35;;;9.00;99.10;;;;;;5045186;28;20785;-88
2021/01/28 12:32:14;;;;;;;2.73;1.50;;;9.10;99.10;;;;;;5045092;28;20174;-86
2021/01/28 12:34:40;;;;;;;3.07;1.37;;;9.10;99.10;;;;;;5042667;28;20411;-85
2021/01/28 12:37:06;;;;;;;3.00;1.27;;;9.20;99.10;;;;;;5039326;28;20401;-85
2021/01/28 12:39:32;;;;;;;4.75;1.40;;;9.40;99.10;;;;;;5036751;28;20494;-85
2021/01/28 12:41:58;;;;;;;1.75;1.30;;;9.50;99.10;;;;;;5045207;28;20181;-86
2021/01/28 12:44:24;;;;;;;1.38;1.20;;;9.50;99.10;;;;;;5047364;28;20626;-86
2021/01/28 12:46:50;;;;;;;2.10;1.20;;;9.60;99.10;;;;;;5046320;28;20207;-86
2021/01/28 12:49:16;;;;;;;3.10;1.20;;;9.60;99.10;;;;;;5057078;28;20188;-86
2021/01/28 12:51:42;;;;;;;4.70;1.93;;;9.70;99.10;;;;;;5054153;28;20826;-86
2021/01/28 12:54:08;;;;;;;1.30;1.10;;;9.70;99.10;;;;;;5046345;28;20443;-86
2021/01/28 12:56:34;;;;;;;3.80;1.73;;;9.70;99.10;;;;;;5043474;28;20166;-86
2021/01/28 12:59:03;;;;;;;3.20;1.35;;;9.70;99.10;;;;;;5046244;28;20267;-85
2021/01/28 13:01:29;;;;;;;1.80;1.25;;;9.80;99.10;;;;;;5040155;28;20170;-86
2021/01/28 13:03:55;;;;;;;3.37;1.30;;;9.70;99.10;;;;;;5037032;28;20181;-86
2021/01/28 13:06:21;;;;;;;2.10;1.13;;;9.80;99.10;;;;;;5037227;28;20456;-85
2021/01/28 13:08:47;;;;;;;4.82;1.83;;;9.80;99.10;;;;;;5037380;28;20201;-85
2021/01/28 13:11:13;;;;;;;3.40;1.33;;;9.80;99.10;;;;;;5038499;28;20173;-85